Escanaba, MI

2:26 PM EDT on September 28, 2016 (GMT -0400)
Delta County | | Change Station

Elev 607 ft 45.72 °N, 87.09 °W | Updated 30 minutes ago

Overcast
Overcast
61 °F
Feels Like 61 °F
N
10
Wind Variable Wind from ENE

Today
High -- | Low -- °F
--% Chance of Precip.
Yesterday
High -- | Low -- °F
Precip. -- in
Pressure 30.17 in
Visibility 10.0 miles
Clouds Few 3500 ft
Mostly Cloudy 5000 ft
Overcast 6000 ft
Dew Point 50 °F
Humidity 67%
Rainfall 0.01 in
Snow Depth Not available.
7:43 AM 7:33 PM
Waning Crescent, 5% visible
METAR KESC 281756Z AUTO 06009KT 10SM FEW035 BKN050 OVC060 16/10 A3009 RMK AO2 SLP217 60001 T01610100 10161 20111 52023
Pressure 30.17 in
Visibility 10.0 miles
Clouds Few 3500 ft
Mostly Cloudy 5000 ft
Overcast 6000 ft
Dew Point 50 °F
Humidity 67%
Rainfall 0.01 in
Snow Depth Not available.
7:43 AM 7:33 PM
Waning Crescent, 5% visible
METAR KESC 281756Z AUTO 06009KT 10SM FEW035 BKN050 OVC060 16/10 A3009 RMK AO2 SLP217 60001 T01610100 10161 20111 52023

10-Day Weather Forecast

Almanac

Astronomy

Sep. 28, 2016 Rise Set
Actual Time
Civil Twilight
Nautical Twilight
Astronomical Twilight
Moon
Length of Visible Light
Length of Day
Tomorrow will be .
, % of the Moon is Illuminated

Today's Extremes

State Highs State Lows

Community

WunderPhotos

Upload Photos

1,942,297 photos uploaded!

WunderBlog® & News

Nearby

Air Quality

  Air Quality AQ Index Pollutant
Not available.

Snow Depth

Station Depth Elevation

Earthquake Activity

City Distance Mag. Time & Date
Minimum magnitude displayed is 2.5.

Coastal Water Temperatures

Place Temperature

Stations

Nearby Weather Stations

Station Location Temp. Windchill Dew Point Humidity Wind Precip. Elev Updated Type
                   

Watches & Warnings

There are currently no watches in effect.